createdAt,value
2023-05-19T00:00:03.338Z,1002.83
2023-05-19T00:00:13.842Z,1002.83
2023-05-19T00:00:24.352Z,1002.83
2023-05-19T00:00:35.102Z,1002.83
2023-05-19T00:00:47.830Z,1002.83
2023-05-19T00:00:55.893Z,1002.83
2023-05-19T00:01:06.397Z,1002.83
2023-05-19T00:01:16.944Z,1002.83
2023-05-19T00:01:27.418Z,1002.83
2023-05-19T00:01:37.978Z,1002.82
2023-05-19T00:01:48.438Z,1002.82
2023-05-19T00:01:58.984Z,1002.83
2023-05-19T00:02:09.631Z,1002.82
2023-05-19T00:02:20.010Z,1002.82
2023-05-19T00:02:30.529Z,1002.82
2023-05-19T00:02:41.198Z,1002.82
2023-05-19T00:02:51.624Z,1002.82
2023-05-19T00:03:02.126Z,1002.81
2023-05-19T00:03:12.624Z,1002.81
2023-05-19T00:03:23.058Z,1002.81
2023-05-19T00:03:33.609Z,1002.81
2023-05-19T00:03:44.088Z,1002.81
2023-05-19T00:03:54.597Z,1002.81
2023-05-19T00:04:05.084Z,1002.80
2023-05-19T00:04:15.607Z,1002.80
2023-05-19T00:04:26.083Z,1002.80
2023-05-19T00:04:36.599Z,1002.79
2023-05-19T00:04:47.104Z,1002.79
2023-05-19T00:04:57.613Z,1002.78
2023-05-19T00:05:08.151Z,1002.79
2023-05-19T00:05:18.665Z,1002.78
2023-05-19T00:05:29.188Z,1002.78
2023-05-19T00:05:39.674Z,1002.78
2023-05-19T00:05:50.193Z,1002.78
2023-05-19T00:06:00.736Z,1002.78
2023-05-19T00:06:11.197Z,1002.78
2023-05-19T00:06:21.803Z,1002.78
2023-05-19T00:06:32.268Z,1002.78
2023-05-19T00:06:42.708Z,1002.78
2023-05-19T00:06:53.212Z,1002.78
2023-05-19T00:07:03.734Z,1002.77
2023-05-19T00:07:14.231Z,1002.77
2023-05-19T00:07:24.746Z,1002.77
2023-05-19T00:07:35.268Z,1002.77
2023-05-19T00:07:45.777Z,1002.77
2023-05-19T00:07:56.279Z,1002.77
2023-05-19T00:08:06.788Z,1002.76
2023-05-19T00:08:17.319Z,1002.76
2023-05-19T00:08:27.815Z,1002.76
2023-05-19T00:08:38.320Z,1002.76
2023-05-19T00:08:48.828Z,1002.76
2023-05-19T00:08:59.374Z,1002.76
2023-05-19T00:09:09.910Z,1002.75
2023-05-19T00:09:20.357Z,1002.74
2023-05-19T00:09:30.871Z,1002.74
2023-05-19T00:09:41.385Z,1002.74
2023-05-19T00:09:51.896Z,1002.74
2023-05-19T00:10:02.439Z,1002.73
2023-05-19T00:10:12.925Z,1002.73
2023-05-19T00:10:23.429Z,1002.73
2023-05-19T00:10:34.126Z,1002.73
2023-05-19T00:10:44.446Z,1002.73
2023-05-19T00:10:54.955Z,1002.73
2023-05-19T00:11:05.474Z,1002.73
2023-05-19T00:11:15.980Z,1002.73
2023-05-19T00:11:26.489Z,1002.73
2023-05-19T00:11:36.998Z,1002.73
2023-05-19T00:11:47.507Z,1002.72
2023-05-19T00:11:58.016Z,1002.72
2023-05-19T00:12:08.524Z,1002.72
2023-05-19T00:12:19.033Z,1002.72
2023-05-19T00:12:29.554Z,1002.72
2023-05-19T00:12:40.059Z,1002.71
2023-05-19T00:12:52.477Z,1002.71
2023-05-19T00:13:01.072Z,1002.71
2023-05-19T00:13:11.587Z,1002.71
2023-05-19T00:13:22.096Z,1002.71
2023-05-19T00:13:32.605Z,1002.71
2023-05-19T00:13:43.106Z,1002.71
2023-05-19T00:13:53.627Z,1002.70
2023-05-19T00:14:04.131Z,1002.71
2023-05-19T00:14:14.645Z,1002.71
2023-05-19T00:14:25.703Z,1002.71
2023-05-19T00:14:35.658Z,1002.71
2023-05-19T00:14:46.170Z,1002.71
2023-05-19T00:14:56.696Z,1002.71
2023-05-19T00:15:07.197Z,1002.70
2023-05-19T00:15:17.708Z,1002.70
2023-05-19T00:15:28.211Z,1002.70
2023-05-19T00:15:38.762Z,1002.70
2023-05-19T00:15:49.260Z,1002.71
2023-05-19T00:15:59.766Z,1002.70
2023-05-19T00:16:10.318Z,1002.71
2023-05-19T00:16:20.803Z,1002.71
2023-05-19T00:16:31.390Z,1002.71
2023-05-19T00:16:41.948Z,1002.70
2023-05-19T00:16:52.327Z,1002.70
2023-05-19T00:17:02.788Z,1002.70
2023-05-19T00:17:13.308Z,1002.70
2023-05-19T00:17:23.808Z,1002.70
2023-05-19T00:17:34.342Z,1002.70
2023-05-19T00:17:44.951Z,1002.70
2023-05-19T00:17:55.424Z,1002.70
2023-05-19T00:18:05.888Z,1002.70
2023-05-19T00:18:16.360Z,1002.70
2023-05-19T00:18:26.860Z,1002.70
2023-05-19T00:18:37.409Z,1002.70
2023-05-19T00:18:47.915Z,1002.70
2023-05-19T00:18:58.411Z,1002.70
2023-05-19T00:19:08.938Z,1002.70
2023-05-19T00:19:19.471Z,1002.70
2023-05-19T00:19:29.974Z,1002.70
2023-05-19T00:19:40.421Z,1002.70
2023-05-19T00:19:50.930Z,1002.70
2023-05-19T00:20:01.471Z,1002.70
2023-05-19T00:20:11.943Z,1002.69
2023-05-19T00:20:22.461Z,1002.69
2023-05-19T00:20:33.269Z,1002.69
2023-05-19T00:20:43.478Z,1002.69
2023-05-19T00:20:53.992Z,1002.69
2023-05-19T00:21:04.714Z,1002.69
2023-05-19T00:21:15.006Z,1002.69
2023-05-19T00:21:25.508Z,1002.69
2023-05-19T00:21:36.030Z,1002.69
2023-05-19T00:21:46.544Z,1002.69
2023-05-19T00:21:57.051Z,1002.70
2023-05-19T00:22:07.599Z,1002.70
2023-05-19T00:22:18.072Z,1002.70
2023-05-19T00:22:28.576Z,1002.70
2023-05-19T00:22:39.098Z,1002.70
2023-05-19T00:22:49.595Z,1002.70
2023-05-19T00:23:00.156Z,1002.70
2023-05-19T00:23:10.632Z,1002.69
2023-05-19T00:23:21.145Z,1002.70
2023-05-19T00:23:31.647Z,1002.70
2023-05-19T00:23:42.152Z,1002.70
2023-05-19T00:23:52.682Z,1002.70
2023-05-19T00:24:03.177Z,1002.70
2023-05-19T00:24:13.681Z,1002.70
2023-05-19T00:24:24.198Z,1002.70
2023-05-19T00:24:34.713Z,1002.69
2023-05-19T00:24:45.216Z,1002.69
2023-05-19T00:24:55.716Z,1002.69
2023-05-19T00:25:06.262Z,1002.69
2023-05-19T00:25:16.760Z,1002.69
2023-05-19T00:25:27.293Z,1002.69
2023-05-19T00:25:37.760Z,1002.69
2023-05-19T00:25:48.264Z,1002.68
2023-05-19T00:25:58.781Z,1002.68
2023-05-19T00:26:09.278Z,1002.68
2023-05-19T00:26:19.783Z,1002.68
2023-05-19T00:26:30.292Z,1002.67
2023-05-19T00:26:40.809Z,1002.67
2023-05-19T00:26:51.314Z,1002.66
2023-05-19T00:27:01.903Z,1002.65
2023-05-19T00:27:12.331Z,1002.65
2023-05-19T00:27:22.837Z,1002.64
2023-05-19T00:27:33.347Z,1002.64
2023-05-19T00:27:43.866Z,1002.64
2023-05-19T00:27:54.373Z,1002.64
2023-05-19T00:28:04.874Z,1002.64
2023-05-19T00:28:15.396Z,1002.64
2023-05-19T00:28:25.894Z,1002.63
2023-05-19T00:28:36.403Z,1002.64
2023-05-19T00:28:46.923Z,1002.63
2023-05-19T00:28:57.421Z,1002.63
2023-05-19T00:29:07.938Z,1002.63
2023-05-19T00:29:18.487Z,1002.63
2023-05-19T00:29:28.971Z,1002.63
2023-05-19T00:29:39.464Z,1002.63
2023-05-19T00:29:49.972Z,1002.62
2023-05-19T00:30:00.496Z,1002.62
2023-05-19T00:30:10.997Z,1002.62
2023-05-19T00:30:21.510Z,1002.62
2023-05-19T00:30:32.280Z,1002.61
2023-05-19T00:30:42.527Z,1002.61
2023-05-19T00:30:53.059Z,1002.60
2023-05-19T00:31:03.535Z,1002.60
2023-05-19T00:31:14.052Z,1002.59
2023-05-19T00:31:24.573Z,1002.60
2023-05-19T00:31:35.102Z,1002.60
2023-05-19T00:31:45.621Z,1002.60
2023-05-19T00:31:56.119Z,1002.60
2023-05-19T00:32:06.670Z,1002.60
2023-05-19T00:32:17.164Z,1002.60
2023-05-19T00:32:27.665Z,1002.59
2023-05-19T00:32:38.171Z,1002.59
2023-05-19T00:32:48.637Z,1002.59
2023-05-19T00:32:59.183Z,1002.58
2023-05-19T00:33:09.657Z,1002.58
2023-05-19T00:33:20.149Z,1002.59
2023-05-19T00:33:30.654Z,1002.59
2023-05-19T00:33:41.163Z,1002.58
2023-05-19T00:33:51.684Z,1002.58
2023-05-19T00:34:02.199Z,1002.59
2023-05-19T00:34:12.699Z,1002.59
2023-05-19T00:34:23.213Z,1002.59
2023-05-19T00:34:33.717Z,1002.59
2023-05-19T00:34:44.231Z,1002.59
2023-05-19T00:34:54.730Z,1002.59
2023-05-19T00:35:05.251Z,1002.59
2023-05-19T00:35:15.760Z,1002.59
2023-05-19T00:35:26.261Z,1002.59
2023-05-19T00:35:36.824Z,1002.59
2023-05-19T00:35:47.282Z,1002.59
2023-05-19T00:35:57.854Z,1002.59
2023-05-19T00:36:08.303Z,1002.59
2023-05-19T00:36:18.814Z,1002.59
2023-05-19T00:36:29.316Z,1002.59
2023-05-19T00:36:39.834Z,1002.58
2023-05-19T00:36:50.366Z,1002.58
2023-05-19T00:37:00.877Z,1002.58
2023-05-19T00:37:11.371Z,1002.58
2023-05-19T00:37:21.876Z,1002.59
2023-05-19T00:37:32.395Z,1002.59
2023-05-19T00:37:42.894Z,1002.59
2023-05-19T00:37:53.406Z,1002.60
2023-05-19T00:38:03.931Z,1002.59
2023-05-19T00:38:14.453Z,1002.59
2023-05-19T00:38:24.939Z,1002.58
2023-05-19T00:38:35.441Z,1002.58
2023-05-19T00:38:45.956Z,1002.58
2023-05-19T00:38:56.469Z,1002.58
2023-05-19T00:39:06.982Z,1002.58
2023-05-19T00:39:17.489Z,1002.58
2023-05-19T00:39:27.998Z,1002.58
2023-05-19T00:39:38.500Z,1002.58
2023-05-19T00:39:49.004Z,1002.58
2023-05-19T00:39:59.522Z,1002.58
2023-05-19T00:40:10.027Z,1002.58
2023-05-19T00:40:20.532Z,1002.57
2023-05-19T00:40:31.300Z,1002.58
2023-05-19T00:40:41.574Z,1002.58
2023-05-19T00:40:52.057Z,1002.58
2023-05-19T00:41:02.569Z,1002.58
2023-05-19T00:41:13.108Z,1002.58
2023-05-19T00:41:23.605Z,1002.58
2023-05-19T00:41:34.104Z,1002.58
2023-05-19T00:41:44.624Z,1002.59
2023-05-19T00:41:55.120Z,1002.58
2023-05-19T00:42:05.630Z,1002.59
2023-05-19T00:42:16.148Z,1002.59
2023-05-19T00:42:26.658Z,1002.59
2023-05-19T00:42:37.173Z,1002.59
2023-05-19T00:42:47.680Z,1002.59
2023-05-19T00:42:58.184Z,1002.59
2023-05-19T00:43:08.696Z,1002.59
2023-05-19T00:43:19.228Z,1002.59
2023-05-19T00:43:29.719Z,1002.59
2023-05-19T00:43:40.232Z,1002.59
2023-05-19T00:43:50.741Z,1002.59
2023-05-19T00:44:01.249Z,1002.59
2023-05-19T00:44:11.765Z,1002.59
2023-05-19T00:44:22.269Z,1002.59
2023-05-19T00:44:32.768Z,1002.59
2023-05-19T00:44:43.278Z,1002.59
2023-05-19T00:44:53.792Z,1002.59
2023-05-19T00:45:04.300Z,1002.59
2023-05-19T00:45:14.800Z,1002.59
2023-05-19T00:45:25.310Z,1002.59
2023-05-19T00:45:35.819Z,1002.59
2023-05-19T00:45:46.329Z,1002.60
2023-05-19T00:45:56.836Z,1002.60
2023-05-19T00:46:07.499Z,1002.60
2023-05-19T00:46:17.964Z,1002.61
2023-05-19T00:46:28.391Z,1002.60
2023-05-19T00:46:38.923Z,1002.60
2023-05-19T00:46:49.416Z,1002.60
2023-05-19T00:46:59.962Z,1002.59
2023-05-19T00:47:10.429Z,1002.58
2023-05-19T00:47:20.975Z,1002.58
2023-05-19T00:47:31.503Z,1002.58
2023-05-19T00:47:42.016Z,1002.58
2023-05-19T00:47:52.490Z,1002.57
2023-05-19T00:48:03.000Z,1002.57
2023-05-19T00:48:13.480Z,1002.57
2023-05-19T00:48:24.001Z,1002.58
2023-05-19T00:48:34.519Z,1002.57
2023-05-19T00:48:45.013Z,1002.57
2023-05-19T00:48:55.521Z,1002.58
2023-05-19T00:49:06.029Z,1002.58
2023-05-19T00:49:16.533Z,1002.58
2023-05-19T00:49:27.048Z,1002.57
2023-05-19T00:49:37.549Z,1002.57
2023-05-19T00:49:48.064Z,1002.57
2023-05-19T00:49:58.569Z,1002.57
2023-05-19T00:50:09.090Z,1002.57
2023-05-19T00:50:19.592Z,1002.57
2023-05-19T00:50:30.463Z,1002.57
2023-05-19T00:50:40.635Z,1002.57
2023-05-19T00:50:51.136Z,1002.57
2023-05-19T00:51:01.620Z,1002.57
2023-05-19T00:51:12.138Z,1002.57
2023-05-19T00:51:22.636Z,1002.57
2023-05-19T00:51:33.203Z,1002.57
2023-05-19T00:51:43.664Z,1002.57
2023-05-19T00:51:54.181Z,1002.57
2023-05-19T00:52:04.692Z,1002.57
2023-05-19T00:52:15.177Z,1002.57
2023-05-19T00:52:25.695Z,1002.56
2023-05-19T00:52:36.197Z,1002.56
2023-05-19T00:52:46.707Z,1002.56
2023-05-19T00:52:57.214Z,1002.57
2023-05-19T00:53:07.721Z,1002.56
2023-05-19T00:53:18.236Z,1002.56
2023-05-19T00:53:28.756Z,1002.57
2023-05-19T00:53:39.284Z,1002.57
2023-05-19T00:53:49.764Z,1002.57
2023-05-19T00:54:00.269Z,1002.57
2023-05-19T00:54:10.784Z,1002.57
2023-05-19T00:54:21.287Z,1002.57
2023-05-19T00:54:31.789Z,1002.57
2023-05-19T00:54:42.314Z,1002.57
2023-05-19T00:54:52.806Z,1002.56
2023-05-19T00:55:03.320Z,1002.56
2023-05-19T00:55:13.841Z,1002.56
2023-05-19T00:55:24.346Z,1002.56
2023-05-19T00:55:34.843Z,1002.56
2023-05-19T00:55:45.368Z,1002.56
2023-05-19T00:55:55.861Z,1002.57
2023-05-19T00:56:06.375Z,1002.56
2023-05-19T00:56:16.941Z,1002.56
2023-05-19T00:56:27.418Z,1002.55
2023-05-19T00:56:37.935Z,1002.55
2023-05-19T00:56:48.414Z,1002.55
2023-05-19T00:56:58.913Z,1002.55
2023-05-19T00:57:09.428Z,1002.54
2023-05-19T00:57:19.945Z,1002.54
2023-05-19T00:57:30.441Z,1002.54
2023-05-19T00:57:40.954Z,1002.54
2023-05-19T00:57:51.470Z,1002.54
2023-05-19T00:58:01.975Z,1002.54
2023-05-19T00:58:12.483Z,1002.55
2023-05-19T00:58:22.990Z,1002.55
2023-05-19T00:58:33.531Z,1002.55
2023-05-19T00:58:44.023Z,1002.55
2023-05-19T00:58:54.519Z,1002.55
2023-05-19T00:59:05.020Z,1002.55
2023-05-19T00:59:15.533Z,1002.55
2023-05-19T00:59:26.037Z,1002.55
2023-05-19T00:59:36.549Z,1002.55
2023-05-19T00:59:47.066Z,1002.55
2023-05-19T00:59:57.584Z,1002.55
2023-05-19T01:00:08.086Z,1002.55
2023-05-19T01:00:18.611Z,1002.55
2023-05-19T01:00:29.161Z,1002.56
2023-05-19T01:00:39.695Z,1002.56
2023-05-19T01:00:50.216Z,1002.56
2023-05-19T01:01:00.674Z,1002.56
2023-05-19T01:01:11.274Z,1002.56
2023-05-19T01:01:21.990Z,1002.55
2023-05-19T01:01:32.276Z,1002.55
2023-05-19T01:01:42.665Z,1002.55
2023-05-19T01:01:53.166Z,1002.55
2023-05-19T01:02:03.683Z,1002.55
2023-05-19T01:02:14.187Z,1002.55
2023-05-19T01:02:24.818Z,1002.55
2023-05-19T01:02:35.329Z,1002.54
2023-05-19T01:02:45.814Z,1002.54
2023-05-19T01:02:56.340Z,1002.54
2023-05-19T01:03:06.870Z,1002.54
2023-05-19T01:03:17.331Z,1002.54
2023-05-19T01:03:27.890Z,1002.54
2023-05-19T01:03:38.323Z,1002.54
2023-05-19T01:03:48.944Z,1002.54
2023-05-19T01:03:59.528Z,1002.53
2023-05-19T01:04:09.895Z,1002.53
2023-05-19T01:04:20.315Z,1002.53
2023-05-19T01:04:30.812Z,1002.53
2023-05-19T01:04:41.321Z,1002.52
2023-05-19T01:04:51.838Z,1002.52
2023-05-19T01:05:02.351Z,1002.52
2023-05-19T01:05:12.870Z,1002.52
2023-05-19T01:05:23.372Z,1002.53
2023-05-19T01:05:33.878Z,1002.52
2023-05-19T01:05:44.404Z,1002.53
2023-05-19T01:05:54.899Z,1002.53
2023-05-19T01:06:05.508Z,1002.53
2023-05-19T01:06:15.932Z,1002.52
2023-05-19T01:06:26.438Z,1002.52
2023-05-19T01:06:36.936Z,1002.52
2023-05-19T01:06:47.447Z,1002.51
2023-05-19T01:06:57.959Z,1002.51
2023-05-19T01:07:08.457Z,1002.51
2023-05-19T01:07:18.975Z,1002.52
2023-05-19T01:07:29.538Z,1002.52
2023-05-19T01:07:39.994Z,1002.52
2023-05-19T01:07:50.504Z,1002.53
2023-05-19T01:08:01.016Z,1002.53
2023-05-19T01:08:11.516Z,1002.52
2023-05-19T01:08:22.060Z,1002.52
2023-05-19T01:08:32.546Z,1002.52
2023-05-19T01:08:43.051Z,1002.52
2023-05-19T01:08:53.561Z,1002.52
2023-05-19T01:09:04.069Z,1002.52
2023-05-19T01:09:14.575Z,1002.53
2023-05-19T01:09:25.100Z,1002.53
2023-05-19T01:09:35.590Z,1002.53
2023-05-19T01:09:46.108Z,1002.54
2023-05-19T01:09:56.612Z,1002.54
2023-05-19T01:10:07.186Z,1002.54
2023-05-19T01:10:17.635Z,1002.53
2023-05-19T01:10:28.138Z,1002.53
2023-05-19T01:10:38.649Z,1002.52
2023-05-19T01:10:49.158Z,1002.51
2023-05-19T01:10:59.677Z,1002.51
2023-05-19T01:11:10.180Z,1002.51
2023-05-19T01:11:20.722Z,1002.51
2023-05-19T01:11:31.220Z,1002.51
2023-05-19T01:11:41.708Z,1002.52
2023-05-19T01:11:52.237Z,1002.51
2023-05-19T01:12:02.736Z,1002.52
2023-05-19T01:12:13.240Z,1002.52
2023-05-19T01:12:23.743Z,1002.52
2023-05-19T01:12:34.254Z,1002.52
2023-05-19T01:12:44.760Z,1002.52
2023-05-19T01:12:55.264Z,1002.52
2023-05-19T01:13:05.778Z,1002.52
2023-05-19T01:13:16.280Z,1002.51
2023-05-19T01:13:26.788Z,1002.50
2023-05-19T01:13:38.155Z,1002.49
2023-05-19T01:13:47.810Z,1002.49
2023-05-19T01:13:58.368Z,1002.48
2023-05-19T01:14:08.824Z,1002.48
2023-05-19T01:14:19.334Z,1002.48
2023-05-19T01:14:29.850Z,1002.48
2023-05-19T01:14:40.359Z,1002.48
2023-05-19T01:14:50.869Z,1002.48
2023-05-19T01:15:01.375Z,1002.47
2023-05-19T01:15:11.888Z,1002.47
2023-05-19T01:15:22.393Z,1002.47
2023-05-19T01:15:32.900Z,1002.48
2023-05-19T01:15:43.409Z,1002.48
2023-05-19T01:15:53.923Z,1002.48
2023-05-19T01:16:04.458Z,1002.48
2023-05-19T01:16:14.964Z,1002.48
2023-05-19T01:16:25.475Z,1002.47
2023-05-19T01:16:36.044Z,1002.47
2023-05-19T01:16:46.590Z,1002.46
2023-05-19T01:16:57.137Z,1002.47
2023-05-19T01:17:07.504Z,1002.47
2023-05-19T01:17:17.979Z,1002.47
2023-05-19T01:17:28.600Z,1002.47
2023-05-19T01:17:39.021Z,1002.47
2023-05-19T01:17:49.575Z,1002.47
2023-05-19T01:18:00.083Z,1002.48
2023-05-19T01:18:10.534Z,1002.48
2023-05-19T01:18:21.048Z,1002.48
2023-05-19T01:18:31.541Z,1002.48
2023-05-19T01:18:42.079Z,1002.48
2023-05-19T01:18:52.554Z,1002.47
2023-05-19T01:19:03.099Z,1002.47
2023-05-19T01:19:13.631Z,1002.47
2023-05-19T01:19:24.130Z,1002.47
2023-05-19T01:19:34.585Z,1002.47
2023-05-19T01:19:45.097Z,1002.46
2023-05-19T01:19:55.603Z,1002.46
2023-05-19T01:20:06.109Z,1002.46
2023-05-19T01:20:16.625Z,1002.46
2023-05-19T01:20:27.126Z,1002.46
2023-05-19T01:20:37.637Z,1002.46
2023-05-19T01:20:48.185Z,1002.47
2023-05-19T01:20:58.655Z,1002.46
2023-05-19T01:21:09.155Z,1002.46
2023-05-19T01:21:19.665Z,1002.47
2023-05-19T01:21:30.181Z,1002.46
2023-05-19T01:21:40.678Z,1002.46
2023-05-19T01:21:51.198Z,1002.46
2023-05-19T01:22:01.713Z,1002.46
2023-05-19T01:22:12.206Z,1002.46
2023-05-19T01:22:22.742Z,1002.46
2023-05-19T01:22:33.234Z,1002.46
2023-05-19T01:22:43.762Z,1002.46
2023-05-19T01:22:54.246Z,1002.46
2023-05-19T01:23:04.767Z,1002.45
2023-05-19T01:23:15.369Z,1002.45
2023-05-19T01:23:25.775Z,1002.44
2023-05-19T01:23:36.275Z,1002.44
2023-05-19T01:23:46.772Z,1002.44
2023-05-19T01:23:57.286Z,1002.45
2023-05-19T01:24:07.798Z,1002.45
2023-05-19T01:24:18.309Z,1002.45
2023-05-19T01:24:28.814Z,1002.44
2023-05-19T01:24:39.331Z,1002.44
2023-05-19T01:24:49.857Z,1002.43
2023-05-19T01:25:00.343Z,1002.43
2023-05-19T01:25:10.860Z,1002.43
2023-05-19T01:25:21.364Z,1002.43
2023-05-19T01:25:31.867Z,1002.42
2023-05-19T01:25:42.364Z,1002.43
2023-05-19T01:25:52.878Z,1002.43
2023-05-19T01:26:03.406Z,1002.43
2023-05-19T01:26:13.895Z,1002.43
2023-05-19T01:26:24.397Z,1002.43
2023-05-19T01:26:34.911Z,1002.42
2023-05-19T01:26:45.417Z,1002.41
2023-05-19T01:26:55.938Z,1002.41
2023-05-19T01:27:06.426Z,1002.41
2023-05-19T01:27:16.949Z,1002.41
2023-05-19T01:27:27.445Z,1002.42
2023-05-19T01:27:37.959Z,1002.43
2023-05-19T01:27:48.482Z,1002.42
2023-05-19T01:27:58.985Z,1002.42
2023-05-19T01:28:09.472Z,1002.42
2023-05-19T01:28:20.016Z,1002.42
2023-05-19T01:28:30.496Z,1002.42
2023-05-19T01:28:40.996Z,1002.43
2023-05-19T01:28:51.516Z,1002.43
2023-05-19T01:29:02.015Z,1002.43
2023-05-19T01:29:12.529Z,1002.43
2023-05-19T01:29:23.027Z,1002.42
2023-05-19T01:29:33.544Z,1002.42
2023-05-19T01:29:44.079Z,1002.43
2023-05-19T01:29:54.571Z,1002.43
2023-05-19T01:30:05.064Z,1002.43
2023-05-19T01:30:15.561Z,1002.44
2023-05-19T01:30:26.074Z,1002.43
2023-05-19T01:30:36.589Z,1002.43
2023-05-19T01:30:47.085Z,1002.43
2023-05-19T01:30:57.592Z,1002.42
2023-05-19T01:31:08.103Z,1002.42
2023-05-19T01:31:18.650Z,1002.42
2023-05-19T01:31:29.148Z,1002.42
2023-05-19T01:31:39.669Z,1002.42
2023-05-19T01:31:50.156Z,1002.42
2023-05-19T01:32:00.650Z,1002.41
2023-05-19T01:32:11.245Z,1002.41
2023-05-19T01:32:21.679Z,1002.41
2023-05-19T01:32:32.206Z,1002.41
2023-05-19T01:32:42.709Z,1002.41
2023-05-19T01:32:53.210Z,1002.41
2023-05-19T01:33:03.754Z,1002.41
2023-05-19T01:33:14.221Z,1002.41
2023-05-19T01:33:24.743Z,1002.41
2023-05-19T01:33:35.223Z,1002.41
2023-05-19T01:33:45.727Z,1002.41
2023-05-19T01:33:56.233Z,1002.41
2023-05-19T01:34:06.764Z,1002.41
2023-05-19T01:34:17.256Z,1002.42
2023-05-19T01:34:27.762Z,1002.42
2023-05-19T01:34:38.268Z,1002.43
2023-05-19T01:34:48.790Z,1002.42
2023-05-19T01:34:59.282Z,1002.42
2023-05-19T01:35:09.785Z,1002.41
2023-05-19T01:35:20.310Z,1002.41
2023-05-19T01:35:30.821Z,1002.41
2023-05-19T01:35:41.314Z,1002.41
2023-05-19T01:35:51.855Z,1002.40
2023-05-19T01:36:02.349Z,1002.40
2023-05-19T01:36:12.853Z,1002.40
2023-05-19T01:36:23.354Z,1002.40
2023-05-19T01:36:33.861Z,1002.41
2023-05-19T01:36:44.364Z,1002.41
2023-05-19T01:36:54.866Z,1002.42
2023-05-19T01:37:05.382Z,1002.42
2023-05-19T01:37:15.900Z,1002.43
2023-05-19T01:37:26.399Z,1002.43
2023-05-19T01:37:36.903Z,1002.44
2023-05-19T01:37:47.414Z,1002.44
2023-05-19T01:37:57.929Z,1002.43
2023-05-19T01:38:08.429Z,1002.43
2023-05-19T01:38:18.935Z,1002.42
2023-05-19T01:38:29.514Z,1002.42
2023-05-19T01:38:39.963Z,1002.41
2023-05-19T01:38:50.462Z,1002.41
2023-05-19T01:39:00.965Z,1002.41
2023-05-19T01:39:11.474Z,1002.41
2023-05-19T01:39:21.982Z,1002.41
2023-05-19T01:39:32.499Z,1002.42
2023-05-19T01:39:43.004Z,1002.42
2023-05-19T01:39:53.514Z,1002.43
2023-05-19T01:40:04.046Z,1002.43
2023-05-19T01:40:14.535Z,1002.43
2023-05-19T01:40:25.036Z,1002.43
2023-05-19T01:40:35.543Z,1002.43
2023-05-19T01:40:46.058Z,1002.43
2023-05-19T01:40:56.561Z,1002.43
2023-05-19T01:41:07.076Z,1002.43
2023-05-19T01:41:17.584Z,1002.42
2023-05-19T01:41:28.079Z,1002.42
2023-05-19T01:41:38.599Z,1002.42
2023-05-19T01:41:49.098Z,1002.42
2023-05-19T01:41:59.618Z,1002.43
2023-05-19T01:42:10.118Z,1002.42
2023-05-19T01:42:20.642Z,1002.42
2023-05-19T01:42:31.146Z,1002.43
2023-05-19T01:42:41.655Z,1002.43
2023-05-19T01:42:52.148Z,1002.43
2023-05-19T01:43:02.760Z,1002.44
2023-05-19T01:43:13.209Z,1002.44
2023-05-19T01:43:23.674Z,1002.45
2023-05-19T01:43:34.209Z,1002.45
2023-05-19T01:43:44.703Z,1002.44
2023-05-19T01:43:55.202Z,1002.44
2023-05-19T01:44:05.725Z,1002.43
2023-05-19T01:44:16.231Z,1002.43
2023-05-19T01:44:26.742Z,1002.43
2023-05-19T01:44:37.236Z,1002.43
2023-05-19T01:44:47.778Z,1002.43
2023-05-19T01:44:58.276Z,1002.42
2023-05-19T01:45:08.770Z,1002.42
2023-05-19T01:45:19.277Z,1002.42
2023-05-19T01:45:29.775Z,1002.42
2023-05-19T01:45:40.337Z,1002.42
2023-05-19T01:45:50.817Z,1002.42
2023-05-19T01:46:01.318Z,1002.42
2023-05-19T01:46:11.891Z,1002.42
2023-05-19T01:46:22.362Z,1002.42
2023-05-19T01:46:32.960Z,1002.42
2023-05-19T01:46:43.360Z,1002.42
2023-05-19T01:46:53.849Z,1002.43
2023-05-19T01:47:04.351Z,1002.42
2023-05-19T01:47:14.860Z,1002.42
2023-05-19T01:47:25.468Z,1002.42
2023-05-19T01:47:35.928Z,1002.42
2023-05-19T01:47:46.453Z,1002.42
2023-05-19T01:47:56.942Z,1002.42
2023-05-19T01:48:10.683Z,1002.41
2023-05-19T01:48:17.921Z,1002.42
2023-05-19T01:48:28.458Z,1002.42
2023-05-19T01:48:38.936Z,1002.41
2023-05-19T01:48:49.443Z,1002.41
2023-05-19T01:48:59.968Z,1002.40
2023-05-19T01:49:10.461Z,1002.41
2023-05-19T01:49:20.970Z,1002.40
2023-05-19T01:49:31.476Z,1002.40
2023-05-19T01:49:41.983Z,1002.40
2023-05-19T01:49:52.488Z,1002.40
2023-05-19T01:50:02.996Z,1002.39
2023-05-19T01:50:13.514Z,1002.39
2023-05-19T01:50:24.049Z,1002.40
2023-05-19T01:50:34.767Z,1002.41
2023-05-19T01:50:45.030Z,1002.41
2023-05-19T01:50:55.578Z,1002.42
2023-05-19T01:51:06.053Z,1002.42
2023-05-19T01:51:16.558Z,1002.42
2023-05-19T01:51:27.064Z,1002.43
2023-05-19T01:51:37.568Z,1002.42
2023-05-19T01:51:48.079Z,1002.42
2023-05-19T01:51:58.587Z,1002.42
2023-05-19T01:52:09.103Z,1002.42
2023-05-19T01:52:19.599Z,1002.42
2023-05-19T01:52:30.109Z,1002.42
2023-05-19T01:52:40.616Z,1002.42
2023-05-19T01:52:51.120Z,1002.43
2023-05-19T01:53:01.654Z,1002.43
2023-05-19T01:53:12.140Z,1002.44
2023-05-19T01:53:22.636Z,1002.44
2023-05-19T01:53:33.156Z,1002.44
2023-05-19T01:53:43.650Z,1002.44
2023-05-19T01:53:54.160Z,1002.44
2023-05-19T01:54:04.666Z,1002.44
2023-05-19T01:54:15.175Z,1002.44
2023-05-19T01:54:25.684Z,1002.45
2023-05-19T01:54:36.200Z,1002.45
2023-05-19T01:54:46.709Z,1002.45
2023-05-19T01:54:57.211Z,1002.46
2023-05-19T01:55:07.708Z,1002.46
2023-05-19T01:55:18.244Z,1002.46
2023-05-19T01:55:28.744Z,1002.47
2023-05-19T01:55:39.233Z,1002.46
2023-05-19T01:55:49.771Z,1002.47
2023-05-19T01:56:00.257Z,1002.47
2023-05-19T01:56:10.761Z,1002.47
2023-05-19T01:56:21.267Z,1002.47
2023-05-19T01:56:31.782Z,1002.47
2023-05-19T01:56:42.288Z,1002.48
2023-05-19T01:56:52.791Z,1002.48
2023-05-19T01:57:03.309Z,1002.49
2023-05-19T01:57:13.805Z,1002.49
2023-05-19T01:57:24.317Z,1002.49
2023-05-19T01:57:34.844Z,1002.49
2023-05-19T01:57:45.328Z,1002.49
2023-05-19T01:57:55.860Z,1002.49
2023-05-19T01:58:06.350Z,1002.49
2023-05-19T01:58:16.874Z,1002.50
2023-05-19T01:58:27.376Z,1002.50
2023-05-19T01:58:37.881Z,1002.49
2023-05-19T01:58:48.396Z,1002.49
2023-05-19T01:58:58.892Z,1002.49
2023-05-19T01:59:09.420Z,1002.49
2023-05-19T01:59:19.913Z,1002.49
2023-05-19T01:59:30.422Z,1002.49
2023-05-19T01:59:40.927Z,1002.49
2023-05-19T01:59:51.465Z,1002.49
2023-05-19T02:00:01.951Z,1002.49
2023-05-19T02:00:12.472Z,1002.49
2023-05-19T02:00:22.966Z,1002.49
2023-05-19T02:00:33.784Z,1002.49
2023-05-19T02:00:44.020Z,1002.50
2023-05-19T02:00:54.524Z,1002.50
2023-05-19T02:01:05.058Z,1002.50
2023-05-19T02:01:15.549Z,1002.50
2023-05-19T02:01:26.126Z,1002.50
2023-05-19T02:01:36.560Z,1002.50
2023-05-19T02:01:47.239Z,1002.50
2023-05-19T02:01:57.549Z,1002.50
2023-05-19T02:02:08.049Z,1002.50
2023-05-19T02:02:18.562Z,1002.50
2023-05-19T02:02:29.083Z,1002.50
2023-05-19T02:02:39.635Z,1002.50
2023-05-19T02:02:50.083Z,1002.50
2023-05-19T02:03:00.653Z,1002.50
2023-05-19T02:03:11.089Z,1002.50
2023-05-19T02:03:21.606Z,1002.49
2023-05-19T02:03:32.110Z,1002.49
2023-05-19T02:03:42.628Z,1002.49
2023-05-19T02:03:53.145Z,1002.49
2023-05-19T02:04:03.722Z,1002.49
2023-05-19T02:04:14.214Z,1002.49
2023-05-19T02:04:24.671Z,1002.49
2023-05-19T02:04:35.226Z,1002.49
2023-05-19T02:04:45.783Z,1002.49
2023-05-19T02:04:56.233Z,1002.49
2023-05-19T02:05:06.683Z,1002.49
2023-05-19T02:05:17.188Z,1002.49
2023-05-19T02:05:27.709Z,1002.49
2023-05-19T02:05:38.206Z,1002.49
2023-05-19T02:05:48.740Z,1002.48
2023-05-19T02:05:59.261Z,1002.48
2023-05-19T02:06:09.744Z,1002.48
2023-05-19T02:06:20.255Z,1002.48
2023-05-19T02:06:30.750Z,1002.47
2023-05-19T02:06:41.263Z,1002.48
2023-05-19T02:06:51.768Z,1002.48
2023-05-19T02:07:02.266Z,1002.47